Time;durP1;ratioP1;P1;durP2;ratioP2;P2;SDS_P1;SDS_P2;PMS_P1;PMS_P2;Temp;Humidity;BMP_temperature;BMP_pressure;BME280_temperature;BME280_humidity;BME280_pressure;Samples;Min_cycle;Max_cycle;Signal;HPM_P1;HPM_P2
2021/12/22 00:01:26;;;;;;;16.75;10.13;;;-2.70;99.90;;;;;;5104980;28;20052;-64
2021/12/22 00:03:52;;;;;;;13.38;9.02;;;-2.80;99.90;;;;;;5095660;28;20588;-64
2021/12/22 00:06:21;;;;;;;13.55;9.30;;;-2.80;99.90;;;;;;5114463;27;20102;-64
2021/12/22 00:08:47;;;;;;;14.57;9.98;;;-2.80;99.90;;;;;;5114823;27;20051;-64
2021/12/22 00:11:13;;;;;;;16.60;10.18;;;-2.80;99.90;;;;;;5096142;28;20044;-64
2021/12/22 00:13:39;;;;;;;15.82;10.07;;;-2.80;99.90;;;;;;5096385;28;20142;-64
2021/12/22 00:16:05;;;;;;;16.08;10.13;;;-2.80;99.90;;;;;;5114852;28;20114;-64
2021/12/22 00:18:31;;;;;;;16.00;10.60;;;-2.80;99.90;;;;;;5093549;28;20383;-64
2021/12/22 00:20:57;;;;;;;15.93;10.23;;;-2.90;99.90;;;;;;5114590;27;20051;-65
2021/12/22 00:23:23;;;;;;;16.70;9.82;;;-2.90;99.90;;;;;;5107229;28;20056;-64
2021/12/22 00:25:48;;;;;;;15.27;10.23;;;-2.90;99.90;;;;;;5094801;28;20493;-64
2021/12/22 00:28:14;;;;;;;17.25;11.00;;;-2.90;99.90;;;;;;5098136;27;20047;-64
2021/12/22 00:30:40;;;;;;;16.13;10.90;;;-2.90;99.90;;;;;;5091750;28;20051;-64
2021/12/22 00:33:09;;;;;;;17.13;9.95;;;-2.90;99.90;;;;;;5097785;28;20046;-64
2021/12/22 00:35:41;;;;;;;15.38;10.45;;;-2.90;99.90;;;;;;5110478;28;20394;-65
2021/12/22 00:38:09;;;;;;;18.27;10.88;;;-2.90;99.90;;;;;;5122490;27;20553;-64
2021/12/22 00:40:35;;;;;;;14.88;9.85;;;-3.00;99.90;;;;;;5113901;27;20090;-64
2021/12/22 00:43:01;;;;;;;16.13;10.48;;;-3.00;99.90;;;;;;5095018;28;20031;-64
2021/12/22 00:45:28;;;;;;;17.20;10.90;;;-3.10;99.90;;;;;;5076939;28;20943;-64
2021/12/22 00:47:55;;;;;;;16.42;10.43;;;-3.10;99.90;;;;;;5094010;28;20086;-64
2021/12/22 00:50:22;;;;;;;15.15;9.38;;;-3.10;99.90;;;;;;5095608;28;20399;-64
2021/12/22 00:52:48;;;;;;;17.85;10.95;;;-3.10;99.90;;;;;;5094823;28;20028;-64
2021/12/22 00:55:18;;;;;;;20.00;10.80;;;-3.10;99.90;;;;;;5113114;27;20613;-65
2021/12/22 00:57:44;;;;;;;20.92;10.57;;;-3.20;99.90;;;;;;5095779;28;20079;-64
2021/12/22 01:00:11;;;;;;;16.90;10.90;;;-3.10;99.90;;;;;;5113306;27;20101;-65
2021/12/22 01:02:37;;;;;;;18.77;10.90;;;-3.10;99.90;;;;;;5075757;28;20048;-64
2021/12/22 01:05:03;;;;;;;17.38;10.70;;;-3.10;99.90;;;;;;5095276;28;20048;-64
2021/12/22 01:07:29;;;;;;;19.38;11.68;;;-3.10;99.90;;;;;;5126401;27;20055;-65
2021/12/22 01:09:55;;;;;;;16.98;11.27;;;-3.00;99.90;;;;;;5090708;28;20055;-64
2021/12/22 01:12:21;;;;;;;17.25;11.25;;;-3.10;99.90;;;;;;5095823;27;20039;-64
2021/12/22 01:14:47;;;;;;;17.83;10.70;;;-3.10;99.90;;;;;;5113012;27;20537;-64
2021/12/22 01:17:15;;;;;;;15.55;10.32;;;-3.10;99.90;;;;;;5113573;28;20062;-64
2021/12/22 01:20:00;;;;;;;17.10;10.55;;;-3.20;99.90;;;;;;5097336;28;20467;-64
2021/12/22 01:22:35;;;;;;;16.02;10.25;;;-3.20;99.90;;;;;;5093835;28;20458;-64
2021/12/22 01:25:03;;;;;;;16.63;11.48;;;-3.30;99.90;;;;;;5092573;28;20493;-64
2021/12/22 01:27:34;;;;;;;16.80;11.07;;;-3.30;99.90;;;;;;5088806;28;20040;-64
2021/12/22 01:30:09;;;;;;;18.52;11.55;;;-3.40;99.90;;;;;;5092473;28;20127;-64
2021/12/22 01:32:35;;;;;;;20.23;11.27;;;-3.40;99.90;;;;;;5090682;28;20504;-64
2021/12/22 01:35:01;;;;;;;19.98;12.27;;;-3.50;99.90;;;;;;5092922;28;20092;-64
2021/12/22 01:37:27;;;;;;;22.15;12.63;;;-3.50;99.90;;;;;;5092149;28;20040;-64
2021/12/22 01:39:53;;;;;;;22.25;12.88;;;-3.50;99.90;;;;;;5091215;28;20051;-64
2021/12/22 01:42:19;;;;;;;27.00;13.98;;;-3.50;99.90;;;;;;5105537;28;20039;-64
2021/12/22 01:50:38;;;;;;;24.50;14.20;;;-3.50;99.90;;;;;;5090750;28;20108;-64
2021/12/22 01:53:46;;;;;;;24.38;13.48;;;-3.50;99.90;;;;;;5090781;28;20533;-64
2021/12/22 01:56:23;;;;;;;19.85;13.63;;;-3.50;99.90;;;;;;5067712;28;20105;-64
2021/12/22 01:58:53;;;;;;;22.77;14.02;;;-3.60;99.90;;;;;;5091027;28;20082;-64
2021/12/22 02:01:19;;;;;;;23.52;13.27;;;-3.50;99.90;;;;;;5092127;28;20054;-64
2021/12/22 02:03:46;;;;;;;23.52;13.75;;;-3.60;99.90;;;;;;5090746;28;20028;-64
2021/12/22 02:06:13;;;;;;;24.02;13.82;;;-3.60;99.90;;;;;;5083808;28;20040;-64
2021/12/22 02:08:40;;;;;;;24.65;13.45;;;-3.60;99.90;;;;;;5091664;28;20040;-64
2021/12/22 02:11:07;;;;;;;26.85;12.88;;;-3.60;99.90;;;;;;5090883;28;20047;-64
2021/12/22 02:13:38;;;;;;;25.23;14.30;;;-3.60;99.90;;;;;;5089973;28;20047;-64
2021/12/22 02:16:08;;;;;;;21.80;12.52;;;-3.60;99.90;;;;;;5087974;28;20048;-64
2021/12/22 02:18:36;;;;;;;22.15;13.05;;;-3.60;99.90;;;;;;5089415;28;20058;-63
2021/12/22 02:21:03;;;;;;;21.52;13.32;;;-3.60;99.90;;;;;;5071066;28;20083;-64
2021/12/22 02:23:29;;;;;;;24.48;13.45;;;-3.60;99.90;;;;;;5086621;28;20109;-64
2021/12/22 02:26:00;;;;;;;25.90;14.73;;;-3.60;99.90;;;;;;5076504;28;20054;-64
2021/12/22 02:28:30;;;;;;;26.55;13.60;;;-3.60;99.90;;;;;;5092134;28;20051;-64
2021/12/22 02:30:56;;;;;;;20.85;12.82;;;-3.60;99.90;;;;;;5108879;28;20035;-64
2021/12/22 02:33:39;;;;;;;25.63;13.77;;;-3.60;99.90;;;;;;5091511;28;20032;-64
2021/12/22 02:36:20;;;;;;;27.45;14.27;;;-3.60;99.90;;;;;;5108982;28;20040;-64
2021/12/22 02:38:49;;;;;;;25.73;13.48;;;-3.60;99.90;;;;;;5111274;28;20069;-64
2021/12/22 02:41:17;;;;;;;26.45;13.65;;;-3.60;99.90;;;;;;5088600;28;20582;-64
2021/12/22 02:43:47;;;;;;;24.55;13.25;;;-3.60;99.90;;;;;;5092356;28;20056;-64
2021/12/22 02:46:15;;;;;;;23.92;13.43;;;-3.60;99.90;;;;;;5110076;28;20044;-64
2021/12/22 02:48:41;;;;;;;25.90;13.13;;;-3.60;99.90;;;;;;5109633;28;20036;-64
2021/12/22 02:51:07;;;;;;;25.00;14.43;;;-3.70;99.90;;;;;;5110551;28;20547;-64
2021/12/22 02:53:47;;;;;;;22.92;13.60;;;-3.70;99.90;;;;;;5110070;28;20162;-64
2021/12/22 02:59:00;;;;;;;25.13;13.20;;;-3.70;99.90;;;;;;5091882;28;20075;-64
2021/12/22 03:04:09;;;;;;;26.70;14.77;;;-3.60;99.90;;;;;;5114114;28;20411;-64
2021/12/22 03:06:42;;;;;;;24.63;13.15;;;-3.60;99.90;;;;;;5115074;28;20048;-64
2021/12/22 03:09:14;;;;;;;28.58;14.20;;;-3.60;99.90;;;;;;5111200;28;20035;-64
2021/12/22 03:11:40;;;;;;;24.90;13.43;;;-3.50;99.90;;;;;;5096916;28;20403;-64
2021/12/22 03:14:06;;;;;;;27.80;13.68;;;-3.60;99.90;;;;;;5114404;28;20039;-64
2021/12/22 03:16:31;;;;;;;23.48;13.90;;;-3.60;99.90;;;;;;5114492;28;20042;-64
2021/12/22 03:18:57;;;;;;;23.73;13.27;;;-3.60;99.90;;;;;;5095043;28;20044;-64
2021/12/22 03:21:23;;;;;;;23.25;13.93;;;-3.60;99.90;;;;;;5094621;28;20499;-64
2021/12/22 03:23:51;;;;;;;24.42;13.82;;;-3.70;99.90;;;;;;5114176;28;20027;-64
2021/12/22 03:26:18;;;;;;;26.33;13.93;;;-3.70;99.90;;;;;;5113782;28;20089;-64
2021/12/22 03:28:47;;;;;;;26.33;15.15;;;-3.70;99.90;;;;;;5090430;28;20093;-64
2021/12/22 03:31:14;;;;;;;23.50;13.30;;;-3.70;99.90;;;;;;5094730;28;20079;-64
2021/12/22 03:33:40;;;;;;;25.75;13.73;;;-3.70;99.90;;;;;;5096535;28;20411;-64
2021/12/22 03:36:06;;;;;;;26.02;14.15;;;-3.70;99.90;;;;;;5096936;28;20102;-64
2021/12/22 03:38:34;;;;;;;25.20;13.70;;;-3.60;99.90;;;;;;5113075;28;20392;-64
2021/12/22 03:41:01;;;;;;;27.67;13.75;;;-3.60;99.90;;;;;;5095452;28;20040;-64
2021/12/22 03:43:26;;;;;;;21.98;12.98;;;-3.60;99.90;;;;;;5130301;27;20039;-64
2021/12/22 03:45:52;;;;;;;25.85;13.38;;;-3.60;99.90;;;;;;5094854;28;20040;-64
2021/12/22 03:48:18;;;;;;;19.08;12.50;;;-3.70;99.90;;;;;;5113522;28;20035;-64
2021/12/22 03:50:44;;;;;;;25.73;13.90;;;-3.70;99.90;;;;;;5114421;28;20130;-64
2021/12/22 03:53:11;;;;;;;27.17;13.98;;;-3.70;99.90;;;;;;5095485;28;20071;-64
2021/12/22 03:55:37;;;;;;;28.48;14.80;;;-3.80;99.90;;;;;;5094925;28;20070;-64
2021/12/22 03:58:04;;;;;;;24.77;14.18;;;-3.90;99.90;;;;;;5096482;28;20103;-64
2021/12/22 04:00:30;;;;;;;25.80;14.65;;;-3.70;99.90;;;;;;5113521;28;20440;-64
2021/12/22 04:02:57;;;;;;;24.42;12.88;;;-4.00;99.90;;;;;;5094332;28;20039;-64
2021/12/22 04:05:23;;;;;;;23.85;13.93;;;-4.00;99.90;;;;;;5114037;28;20069;-64
2021/12/22 04:07:49;;;;;;;24.30;13.70;;;-4.00;99.90;;;;;;5125907;27;20040;-64
2021/12/22 04:10:22;;;;;;;26.20;14.98;;;-4.00;99.90;;;;;;5091739;28;20046;-64
2021/12/22 04:12:51;;;;;;;27.30;15.25;;;-4.00;99.90;;;;;;5094061;28;20047;-64
2021/12/22 04:15:17;;;;;;;25.30;13.98;;;-4.00;99.90;;;;;;5095696;28;20075;-64
2021/12/22 04:17:43;;;;;;;26.65;13.50;;;-4.10;99.90;;;;;;5114542;28;20042;-64
2021/12/22 04:20:10;;;;;;;26.55;14.02;;;-4.10;99.90;;;;;;5078074;28;20048;-64
2021/12/22 04:22:36;;;;;;;23.65;14.07;;;-4.10;99.90;;;;;;5092156;28;20044;-64
2021/12/22 04:25:04;;;;;;;25.85;13.93;;;-4.10;99.90;;;;;;5093796;28;20388;-64
2021/12/22 04:27:30;;;;;;;31.20;14.27;;;-4.10;99.90;;;;;;5076200;28;20098;-64
2021/12/22 04:29:56;;;;;;;25.60;13.90;;;-4.10;99.90;;;;;;5073571;28;20068;-64
2021/12/22 04:32:22;;;;;;;28.08;14.30;;;-4.10;99.90;;;;;;5093116;28;20036;-64
2021/12/22 04:34:48;;;;;;;23.35;13.52;;;-4.10;99.90;;;;;;5093710;28;20043;-64
2021/12/22 04:37:14;;;;;;;26.15;13.13;;;-4.10;99.90;;;;;;5092715;28;20044;-64
2021/12/22 04:39:39;;;;;;;22.58;13.45;;;-4.10;99.90;;;;;;5089113;28;20123;-64
2021/12/22 04:42:05;;;;;;;31.77;14.57;;;-4.20;99.90;;;;;;5092809;28;20314;-64
2021/12/22 04:44:31;;;;;;;26.75;14.05;;;-4.20;99.90;;;;;;5089941;28;20043;-64
2021/12/22 04:46:59;;;;;;;25.42;14.32;;;-4.20;99.90;;;;;;5093243;28;20036;-64
2021/12/22 04:49:25;;;;;;;25.88;14.52;;;-4.20;99.90;;;;;;5089853;28;20073;-64
2021/12/22 04:51:53;;;;;;;23.33;13.82;;;-4.30;99.90;;;;;;5093653;28;20040;-64
2021/12/22 04:54:33;;;;;;;24.23;14.32;;;-4.30;99.90;;;;;;5091260;28;20044;-64
2021/12/22 04:56:59;;;;;;;26.65;14.13;;;-4.30;99.90;;;;;;5088686;28;20115;-64
2021/12/22 04:59:26;;;;;;;30.83;14.32;;;-4.20;99.90;;;;;;5091325;28;20123;-64
2021/12/22 05:01:52;;;;;;;30.15;13.85;;;-4.20;99.90;;;;;;5091250;28;20047;-64
2021/12/22 05:04:18;;;;;;;26.08;15.27;;;-4.30;99.90;;;;;;5093067;28;20101;-64
2021/12/22 05:06:44;;;;;;;30.73;14.65;;;-4.30;99.90;;;;;;5093547;28;20036;-64
2021/12/22 05:09:10;;;;;;;28.40;14.98;;;-4.30;99.90;;;;;;5089052;28;20052;-64
2021/12/22 05:11:36;;;;;;;27.58;14.23;;;-4.30;99.90;;;;;;5090809;28;20135;-64
2021/12/22 05:14:03;;;;;;;27.92;14.10;;;-4.20;99.90;;;;;;5091903;28;20043;-64
2021/12/22 05:16:32;;;;;;;33.22;13.90;;;-4.20;99.90;;;;;;5088865;28;20040;-64
2021/12/22 05:19:14;;;;;;;27.15;14.68;;;-4.20;99.90;;;;;;5090231;28;20496;-64
2021/12/22 05:21:41;;;;;;;31.50;13.77;;;-4.10;99.90;;;;;;5094935;28;20052;-64
2021/12/22 05:24:07;;;;;;;29.73;15.43;;;-4.20;99.90;;;;;;5111605;28;20035;-64
2021/12/22 05:26:33;;;;;;;27.95;14.45;;;-4.20;99.90;;;;;;5084768;28;20100;-64
2021/12/22 05:28:58;;;;;;;30.40;15.23;;;-4.20;99.90;;;;;;5092582;28;20064;-64
2021/12/22 05:31:24;;;;;;;27.73;15.07;;;-4.20;99.90;;;;;;5110308;28;20047;-64
2021/12/22 05:33:50;;;;;;;30.25;14.15;;;-4.10;99.90;;;;;;5111633;28;20529;-64
2021/12/22 05:36:16;;;;;;;28.58;15.10;;;-4.10;99.90;;;;;;5092876;28;20040;-64
2021/12/22 05:38:42;;;;;;;26.67;14.43;;;-4.10;99.90;;;;;;5109326;28;20119;-64
2021/12/22 05:41:08;;;;;;;28.67;14.48;;;-4.10;99.90;;;;;;5110104;28;20383;-65
2021/12/22 05:43:34;;;;;;;30.23;15.00;;;-4.10;99.90;;;;;;5089168;28;20039;-65
2021/12/22 05:46:00;;;;;;;28.02;14.63;;;-4.10;99.90;;;;;;5111070;28;20167;-64
2021/12/22 05:48:26;;;;;;;30.63;15.93;;;-4.10;99.90;;;;;;5091508;28;20067;-64
2021/12/22 05:50:56;;;;;;;30.52;14.93;;;-4.20;99.90;;;;;;5096293;28;20114;-65
2021/12/22 05:53:22;;;;;;;30.55;14.23;;;-4.20;99.90;;;;;;5109999;28;20118;-65
2021/12/22 05:55:48;;;;;;;26.35;14.68;;;-4.20;99.90;;;;;;5091746;28;20527;-64
2021/12/22 05:58:13;;;;;;;27.55;15.20;;;-4.20;99.90;;;;;;5109432;28;20036;-64
2021/12/22 06:00:39;;;;;;;29.83;14.43;;;-4.10;99.90;;;;;;5094069;28;20411;-65
2021/12/22 06:03:05;;;;;;;29.48;13.93;;;-4.10;99.90;;;;;;5092616;28;20043;-64
2021/12/22 06:05:30;;;;;;;23.77;13.70;;;-4.10;99.90;;;;;;5107610;28;20077;-64
2021/12/22 06:07:56;;;;;;;26.35;14.60;;;-4.10;99.90;;;;;;5111515;28;20032;-64
2021/12/22 06:10:22;;;;;;;28.85;14.25;;;-4.10;99.90;;;;;;5110133;28;20487;-64
2021/12/22 06:12:47;;;;;;;25.13;14.32;;;-4.10;99.90;;;;;;5093096;28;20047;-65
2021/12/22 06:15:13;;;;;;;28.00;14.77;;;-4.10;99.90;;;;;;5093839;28;20047;-65
2021/12/22 06:17:39;;;;;;;24.92;14.10;;;-4.10;99.90;;;;;;5112192;28;20479;-65
2021/12/22 06:20:05;;;;;;;29.73;14.13;;;-4.10;99.90;;;;;;5111871;28;20051;-64
2021/12/22 06:22:33;;;;;;;26.20;13.88;;;-4.10;99.90;;;;;;5112010;28;20109;-65
2021/12/22 06:24:59;;;;;;;28.13;14.50;;;-4.10;99.90;;;;;;5111463;28;20042;-65
2021/12/22 06:27:25;;;;;;;29.02;14.60;;;-4.20;99.90;;;;;;5093699;28;20130;-65
2021/12/22 06:29:51;;;;;;;27.10;13.95;;;-4.20;99.90;;;;;;5109209;28;20085;-65
2021/12/22 06:32:16;;;;;;;28.20;13.75;;;-4.20;99.90;;;;;;5093466;28;20047;-64
2021/12/22 06:34:42;;;;;;;29.80;14.20;;;-4.20;99.90;;;;;;5111242;28;20122;-65
2021/12/22 06:37:08;;;;;;;22.67;13.52;;;-4.20;99.90;;;;;;5092046;28;20080;-65
2021/12/22 06:39:34;;;;;;;28.17;14.10;;;-4.20;99.90;;;;;;5092928;28;20047;-65
2021/12/22 06:42:00;;;;;;;29.23;14.70;;;-4.30;99.90;;;;;;5093498;28;20398;-64
2021/12/22 06:44:26;;;;;;;26.48;14.20;;;-4.30;99.90;;;;;;5092522;28;20399;-65
2021/12/22 06:46:52;;;;;;;27.02;14.95;;;-4.30;99.90;;;;;;5093216;28;20031;-64
2021/12/22 06:49:18;;;;;;;29.52;14.73;;;-4.30;99.90;;;;;;5106155;28;20036;-63
2021/12/22 06:51:44;;;;;;;25.13;13.98;;;-4.30;99.90;;;;;;5092859;28;20058;-67
2021/12/22 06:54:10;;;;;;;29.30;14.77;;;-4.30;99.90;;;;;;5092393;28;20403;-67
2021/12/22 06:56:38;;;;;;;24.13;13.65;;;-4.30;99.90;;;;;;5089549;28;20054;-67
2021/12/22 06:59:04;;;;;;;26.70;13.32;;;-4.40;99.90;;;;;;5088031;28;20083;-67
2021/12/22 07:01:33;;;;;;;26.77;14.35;;;-4.40;99.90;;;;;;5091544;28;20151;-67
2021/12/22 07:03:59;;;;;;;27.35;14.10;;;-4.40;99.90;;;;;;5087776;28;20036;-67
2021/12/22 07:06:24;;;;;;;26.60;14.45;;;-4.40;99.90;;;;;;5091115;28;20040;-66
2021/12/22 07:08:50;;;;;;;26.52;14.15;;;-4.40;99.90;;;;;;5091898;28;20118;-67
2021/12/22 07:11:17;;;;;;;26.75;13.80;;;-4.40;99.90;;;;;;5090242;28;20391;-67
2021/12/22 07:13:43;;;;;;;26.30;14.55;;;-4.40;99.90;;;;;;5092305;28;20073;-67
2021/12/22 07:16:08;;;;;;;25.40;13.70;;;-4.40;99.90;;;;;;5074807;28;20449;-67
2021/12/22 07:18:34;;;;;;;27.13;14.98;;;-4.40;99.90;;;;;;5092629;28;20075;-66
2021/12/22 07:21:01;;;;;;;25.00;13.15;;;-4.40;99.90;;;;;;5090797;28;20044;-67
2021/12/22 07:23:27;;;;;;;29.00;14.15;;;-4.40;99.90;;;;;;5093829;28;20048;-67
2021/12/22 07:25:53;;;;;;;29.23;15.02;;;-4.50;99.90;;;;;;5095113;28;20035;-66
2021/12/22 07:28:18;;;;;;;28.70;13.65;;;-4.50;99.90;;;;;;5089739;28;20065;-67
2021/12/22 07:30:44;;;;;;;28.10;13.10;;;-4.50;99.90;;;;;;5075828;28;20043;-67
2021/12/22 07:33:11;;;;;;;27.15;13.80;;;-4.50;99.90;;;;;;5092759;28;20040;-67
2021/12/22 07:35:56;;;;;;;26.77;13.98;;;-4.50;99.90;;;;;;5091342;28;20069;-67
2021/12/22 07:38:24;;;;;;;30.50;14.00;;;-4.50;99.90;;;;;;5087522;28;20403;-67
2021/12/22 07:40:55;;;;;;;31.02;14.88;;;-4.50;99.90;;;;;;5093714;28;20048;-67
2021/12/22 07:43:20;;;;;;;27.10;13.50;;;-4.50;99.90;;;;;;5125814;27;20035;-67
2021/12/22 07:45:46;;;;;;;24.55;12.90;;;-4.50;99.90;;;;;;5110998;28;20081;-67
2021/12/22 07:48:12;;;;;;;28.77;13.50;;;-4.50;99.90;;;;;;5078636;28;20043;-67
2021/12/22 07:50:38;;;;;;;25.60;13.02;;;-4.50;99.90;;;;;;5085453;28;20040;-67
2021/12/22 07:53:04;;;;;;;29.23;13.32;;;-4.40;99.90;;;;;;5095035;28;20111;-67
2021/12/22 07:55:30;;;;;;;23.65;12.70;;;-3.50;99.90;;;;;;5094545;28;20082;-66
2021/12/22 07:57:56;;;;;;;25.17;13.48;;;-4.40;99.90;;;;;;5093203;28;20044;-66
2021/12/22 08:00:21;;;;;;;24.15;12.95;;;-4.30;99.90;;;;;;5094523;28;20094;-67
2021/12/22 08:02:47;;;;;;;25.70;13.10;;;-4.30;99.90;;;;;;5095539;28;20043;-67
2021/12/22 08:05:13;;;;;;;26.23;13.50;;;-4.20;99.90;;;;;;5111764;28;20035;-67
2021/12/22 08:07:39;;;;;;;28.63;13.18;;;-4.20;99.90;;;;;;5095167;28;20063;-66
2021/12/22 08:10:06;;;;;;;27.10;13.80;;;-4.10;99.90;;;;;;5111799;28;20043;-67
2021/12/22 08:12:32;;;;;;;24.08;12.65;;;-4.00;99.90;;;;;;5077865;28;20043;-67
2021/12/22 08:14:58;;;;;;;25.75;13.38;;;-4.00;99.90;;;;;;5095452;28;20048;-67
2021/12/22 08:17:27;;;;;;;28.08;14.27;;;-4.00;99.90;;;;;;5112123;27;20035;-67
2021/12/22 08:19:53;;;;;;;22.63;12.57;;;-3.90;99.90;;;;;;5125962;27;20051;-67
2021/12/22 08:22:19;;;;;;;30.25;13.90;;;-3.90;99.90;;;;;;5089453;28;20131;-67
2021/12/22 08:24:45;;;;;;;25.67;13.43;;;-3.90;99.90;;;;;;5091766;28;20040;-67
2021/12/22 08:27:11;;;;;;;28.42;13.35;;;-3.60;99.90;;;;;;5091392;28;20078;-67
2021/12/22 08:29:42;;;;;;;27.48;12.90;;;-3.90;99.90;;;;;;5091968;28;20384;-67
2021/12/22 08:32:09;;;;;;;27.05;13.77;;;-3.90;99.90;;;;;;5087416;28;20044;-67
2021/12/22 08:34:38;;;;;;;25.63;12.80;;;-3.80;99.90;;;;;;5091262;28;20047;-67
2021/12/22 08:39:49;;;;;;;25.42;12.55;;;-3.70;99.90;;;;;;5089806;28;20055;-67
2021/12/22 08:42:14;;;;;;;23.92;12.88;;;-3.70;99.90;;;;;;5091944;28;20036;-67
2021/12/22 08:44:41;;;;;;;26.00;12.88;;;-3.70;99.90;;;;;;5087789;28;20408;-67
2021/12/22 08:47:07;;;;;;;24.77;13.50;;;-3.60;99.90;;;;;;5089400;28;20089;-67
2021/12/22 08:49:33;;;;;;;25.63;13.38;;;-3.60;99.90;;;;;;5126299;27;20396;-67
2021/12/22 08:51:59;;;;;;;27.17;13.75;;;-3.50;99.90;;;;;;5090782;28;20036;-67
2021/12/22 08:54:25;;;;;;;25.08;13.30;;;-3.40;99.90;;;;;;5091242;28;20119;-67
2021/12/22 08:56:52;;;;;;;23.35;12.93;;;-3.30;99.90;;;;;;5090091;28;20123;-67
2021/12/22 08:59:18;;;;;;;24.13;13.43;;;-3.30;99.90;;;;;;5085718;28;20036;-67
2021/12/22 09:01:44;;;;;;;23.63;12.65;;;-3.20;99.90;;;;;;5093844;28;20407;-67
2021/12/22 09:04:10;;;;;;;25.00;12.85;;;-3.20;99.90;;;;;;5089223;28;20044;-67
2021/12/22 09:06:36;;;;;;;24.77;12.38;;;-3.20;99.90;;;;;;5122712;27;20147;-67
2021/12/22 09:09:05;;;;;;;22.40;12.55;;;-3.00;99.90;;;;;;5097334;28;20138;-67
2021/12/22 09:11:30;;;;;;;22.67;12.73;;;-3.30;99.90;;;;;;5090389;28;20131;-67
2021/12/22 09:13:56;;;;;;;24.17;13.25;;;-3.30;99.90;;;;;;5096132;28;20115;-67
2021/12/22 09:16:22;;;;;;;24.73;12.98;;;-3.30;99.90;;;;;;5098268;28;20106;-67
2021/12/22 09:18:48;;;;;;;25.65;12.85;;;-3.20;99.90;;;;;;5102326;28;20074;-67
2021/12/22 09:21:16;;;;;;;25.98;12.85;;;-3.20;99.90;;;;;;5081466;28;20464;-67
2021/12/22 09:23:42;;;;;;;25.10;12.88;;;-3.20;99.90;;;;;;5087538;28;20100;-67
2021/12/22 09:26:08;;;;;;;27.73;13.55;;;-3.20;99.90;;;;;;5100780;28;20055;-67
2021/12/22 09:28:34;;;;;;;24.67;12.75;;;-3.20;99.90;;;;;;5103769;28;20042;-67
2021/12/22 09:31:01;;;;;;;25.13;12.93;;;-3.10;99.90;;;;;;5082592;28;20126;-67
2021/12/22 09:33:26;;;;;;;24.77;13.00;;;-3.00;99.90;;;;;;5096809;28;20093;-65
2021/12/22 09:35:53;;;;;;;23.42;12.85;;;-2.90;99.90;;;;;;5099561;28;20717;-67
2021/12/22 09:38:20;;;;;;;23.77;12.40;;;-2.80;99.90;;;;;;5098529;28;20137;-67
2021/12/22 09:40:46;;;;;;;23.70;13.55;;;-2.80;99.90;;;;;;5099204;28;20085;-67
2021/12/22 09:43:12;;;;;;;27.75;13.95;;;-2.70;99.90;;;;;;5099681;28;20135;-67
2021/12/22 09:45:44;;;;;;;24.90;12.93;;;-2.60;99.90;;;;;;5100506;28;20040;-67
2021/12/22 09:50:52;;;;;;;25.48;13.80;;;-2.50;99.90;;;;;;5094988;28;20071;-67
2021/12/22 09:53:28;;;;;;;24.05;13.07;;;-2.50;99.90;;;;;;5120110;27;20998;-67
2021/12/22 09:55:55;;;;;;;28.17;12.88;;;-2.40;99.90;;;;;;5098137;28;20032;-67
2021/12/22 09:58:22;;;;;;;25.67;12.75;;;-2.40;99.90;;;;;;5094747;28;20073;-67
2021/12/22 10:00:49;;;;;;;27.42;13.82;;;-2.30;99.90;;;;;;5098420;28;20036;-67
2021/12/22 10:03:16;;;;;;;23.63;12.82;;;-2.30;99.90;;;;;;5097540;28;20510;-67
2021/12/22 10:05:43;;;;;;;28.30;13.10;;;-2.20;99.90;;;;;;5098998;28;20073;-67
2021/12/22 10:08:11;;;;;;;22.55;12.38;;;-2.10;99.90;;;;;;5096459;28;20059;-67
2021/12/22 10:10:44;;;;;;;24.40;13.48;;;-2.10;99.90;;;;;;5101005;28;20039;-66
2021/12/22 10:13:16;;;;;;;22.77;12.45;;;-2.00;99.90;;;;;;5101108;28;20094;-67
2021/12/22 10:15:43;;;;;;;25.63;13.30;;;-2.30;99.90;;;;;;5096971;28;20044;-67
2021/12/22 10:18:21;;;;;;;27.58;13.35;;;-1.80;99.90;;;;;;5100066;28;20170;-67
2021/12/22 10:20:48;;;;;;;30.08;13.73;;;-1.80;99.90;;;;;;5093746;28;20044;-67
2021/12/22 10:23:28;;;;;;;23.40;13.77;;;-1.70;99.90;;;;;;5094387;28;20048;-67
2021/12/22 10:25:55;;;;;;;27.88;13.38;;;-1.60;99.90;;;;;;5099637;28;20483;-67
2021/12/22 10:28:22;;;;;;;24.95;13.35;;;-1.60;99.90;;;;;;5104406;28;20055;-67
2021/12/22 10:30:50;;;;;;;26.17;12.98;;;-1.50;99.90;;;;;;5096046;28;20484;-67
2021/12/22 10:33:21;;;;;;;27.80;13.02;;;-1.50;99.90;;;;;;5098466;28;20043;-67
2021/12/22 10:35:49;;;;;;;24.00;13.35;;;-1.40;99.90;;;;;;5097957;28;20468;-67
2021/12/22 10:38:19;;;;;;;27.13;13.40;;;-1.40;99.90;;;;;;5098284;28;20129;-67
2021/12/22 10:40:50;;;;;;;30.65;13.95;;;-1.40;99.90;;;;;;5095437;28;20130;-67
2021/12/22 10:43:23;;;;;;;24.83;12.98;;;-1.30;99.90;;;;;;5102418;28;20169;-67
2021/12/22 10:45:52;;;;;;;26.75;13.73;;;-1.30;99.90;;;;;;5101964;28;20051;-67
2021/12/22 10:51:23;;;;;;;24.13;12.93;;;-1.20;99.90;;;;;;5094975;28;20125;-67
2021/12/22 10:53:50;;;;;;;21.15;12.52;;;-1.20;99.90;;;;;;5091452;28;20044;-66
2021/12/22 10:56:28;;;;;;;23.50;12.07;;;-1.20;99.90;;;;;;5095409;28;20128;-67
2021/12/22 10:59:15;;;;;;;25.00;13.10;;;-1.10;99.90;;;;;;5095456;28;20056;-67
2021/12/22 11:01:57;;;;;;;25.33;12.77;;;-1.10;99.90;;;;;;5096045;28;20035;-67
2021/12/22 11:04:27;;;;;;;25.88;13.02;;;-1.10;99.90;;;;;;5101387;28;20046;-67
2021/12/22 11:07:21;;;;;;;25.83;12.38;;;-1.10;99.90;;;;;;5097157;28;20434;-67
2021/12/22 11:09:47;;;;;;;21.10;12.32;;;-1.00;99.90;;;;;;5094475;28;20043;-67
2021/12/22 11:12:16;;;;;;;22.25;12.45;;;-1.00;99.90;;;;;;5095341;28;20058;-67
2021/12/22 11:14:47;;;;;;;22.20;11.77;;;-0.90;99.90;;;;;;5080148;28;20051;-67
2021/12/22 11:17:15;;;;;;;23.08;13.30;;;-1.00;99.90;;;;;;5079430;28;20036;-67
2021/12/22 11:20:00;;;;;;;26.67;13.38;;;-1.00;99.90;;;;;;5100848;28;20040;-67
2021/12/22 11:23:10;;;;;;;29.13;13.85;;;-0.90;99.90;;;;;;5106157;28;20126;-67
2021/12/22 11:25:33;;;;;;;24.00;11.85;;;-0.90;99.90;;;;;;5104318;28;20114;-67
2021/12/22 11:27:59;;;;;;;24.13;12.38;;;-0.90;99.90;;;;;;5106141;28;20462;-67
2021/12/22 11:30:27;;;;;;;23.35;12.20;;;-0.90;99.90;;;;;;5086760;28;20040;-67
2021/12/22 11:32:55;;;;;;;22.20;12.45;;;-0.90;99.90;;;;;;5099588;28;20046;-67
2021/12/22 11:35:21;;;;;;;23.83;13.02;;;-0.90;99.90;;;;;;5099776;28;20043;-67
2021/12/22 11:37:46;;;;;;;23.55;12.57;;;-0.80;99.90;;;;;;5103007;28;20055;-67
2021/12/22 11:40:16;;;;;;;22.77;12.55;;;-0.80;99.90;;;;;;5106168;28;20090;-67
2021/12/22 11:42:43;;;;;;;29.13;13.20;;;-0.80;99.90;;;;;;5102932;28;20084;-67
2021/12/22 11:45:16;;;;;;;24.20;12.40;;;-0.70;99.90;;;;;;5099292;28;20119;-67
2021/12/22 11:47:53;;;;;;;24.00;12.85;;;-0.70;99.90;;;;;;5105396;28;20085;-67
2021/12/22 11:50:26;;;;;;;22.55;12.75;;;-0.70;99.90;;;;;;5104167;28;20174;-67
2021/12/22 11:53:03;;;;;;;22.67;12.73;;;-0.70;99.90;;;;;;5085551;28;20675;-67
2021/12/22 11:55:44;;;;;;;24.15;12.23;;;-0.60;99.90;;;;;;5100997;28;20056;-67
2021/12/22 11:58:20;;;;;;;25.05;13.05;;;-0.60;99.90;;;;;;5103991;28;20139;-67
2021/12/22 12:00:58;;;;;;;22.15;11.95;;;-0.60;99.90;;;;;;5086565;28;20047;-67
2021/12/22 12:03:30;;;;;;;21.55;11.88;;;-0.60;99.90;;;;;;5104097;28;20094;-68
2021/12/22 12:06:23;;;;;;;20.60;12.68;;;-0.60;99.90;;;;;;5098819;28;20040;-67
2021/12/22 12:09:08;;;;;;;21.88;12.35;;;-0.60;99.90;;;;;;5121466;27;20040;-66
2021/12/22 12:11:55;;;;;;;25.98;12.70;;;-0.50;99.90;;;;;;5102441;28;20555;-67
2021/12/22 12:14:33;;;;;;;21.40;12.00;;;-0.50;99.90;;;;;;5087421;28;20047;-67
2021/12/22 12:23:33;;;;;;;23.83;12.48;;;-0.50;99.90;;;;;;5100279;28;20063;-67
2021/12/22 12:26:03;;;;;;;23.67;12.60;;;-0.60;99.90;;;;;;5104021;28;20081;-67
2021/12/22 12:28:31;;;;;;;23.45;12.20;;;-0.60;99.90;;;;;;5107803;28;20036;-67
2021/12/22 12:30:59;;;;;;;23.15;12.32;;;-0.60;99.90;;;;;;5105143;28;20071;-67
2021/12/22 12:33:29;;;;;;;20.15;11.93;;;-0.60;99.90;;;;;;5103374;28;20472;-66
2021/12/22 12:36:05;;;;;;;25.08;13.13;;;-0.50;99.90;;;;;;5104235;28;20040;-67
2021/12/22 12:38:40;;;;;;;24.50;14.02;;;-0.50;99.90;;;;;;5098461;28;20464;-67
2021/12/22 12:41:28;;;;;;;23.55;13.20;;;-0.50;99.90;;;;;;5101919;28;20097;-67
2021/12/22 12:43:56;;;;;;;23.05;12.50;;;-0.40;99.90;;;;;;5103086;28;20036;-67
2021/12/22 12:46:38;;;;;;;21.67;12.43;;;-0.40;99.90;;;;;;5104834;28;20599;-68
2021/12/22 12:49:04;;;;;;;24.80;12.73;;;-0.40;99.90;;;;;;5098517;28;20039;-67
2021/12/22 12:51:54;;;;;;;21.80;12.52;;;-0.40;99.90;;;;;;5082602;28;20046;-67
2021/12/22 12:54:24;;;;;;;21.05;11.73;;;-0.40;99.90;;;;;;5122899;27;20071;-67
2021/12/22 12:56:55;;;;;;;22.88;12.57;;;-0.40;99.90;;;;;;5098303;28;20047;-67
2021/12/22 12:59:38;;;;;;;46.25;31.38;;;-0.30;99.90;;;;;;5104783;28;20499;-67
2021/12/22 13:02:08;;;;;;;67.95;38.42;;;-0.30;99.90;;;;;;5104893;28;20049;-67